createdAt,value
2023-02-13T00:01:08.225Z,78.75
2023-02-13T00:03:35.939Z,78.59
2023-02-13T00:06:04.001Z,78.82
2023-02-13T00:08:31.982Z,78.94
2023-02-13T00:11:05.656Z,78.91
2023-02-13T00:13:35.738Z,78.86
2023-02-13T00:16:04.915Z,78.88
2023-02-13T00:18:38.248Z,79.13
2023-02-13T00:21:11.519Z,78.39
2023-02-13T00:23:40.419Z,78.37
2023-02-13T00:26:10.620Z,78.40
2023-02-13T00:28:40.863Z,78.36
2023-02-13T00:31:12.589Z,78.61
2023-02-13T00:33:40.809Z,78.36
2023-02-13T00:36:11.608Z,78.64
2023-02-13T00:38:40.636Z,78.25
2023-02-13T00:41:09.236Z,78.42
2023-02-13T00:43:37.745Z,78.52
2023-02-13T00:46:06.264Z,78.39
2023-02-13T00:48:51.756Z,78.96
2023-02-13T00:51:21.104Z,78.81
2023-02-13T00:53:48.604Z,79.30
2023-02-13T00:56:16.737Z,79.12
2023-02-13T00:58:45.955Z,79.66
2023-02-13T01:01:13.848Z,79.85
2023-02-13T01:03:41.642Z,79.30
2023-02-13T01:06:09.196Z,79.51
2023-02-13T01:08:40.310Z,80.15
2023-02-13T01:11:08.205Z,79.81
2023-02-13T01:13:36.896Z,80.29
2023-02-13T01:16:04.700Z,80.59
2023-02-13T01:18:32.210Z,80.86
2023-02-13T01:21:03.966Z,80.78
2023-02-13T01:23:34.077Z,81.01
2023-02-13T01:26:04.815Z,81.03
2023-02-13T01:28:32.551Z,81.05
2023-02-13T01:31:00.790Z,80.70
2023-02-13T01:33:29.882Z,81.20
2023-02-13T01:35:58.289Z,81.73
2023-02-13T01:38:25.882Z,82.00
2023-02-13T01:40:54.505Z,82.28
2023-02-13T01:43:24.736Z,82.19
2023-02-13T01:45:56.078Z,81.79
2023-02-13T01:48:26.503Z,82.28
2023-02-13T01:51:00.787Z,82.47
2023-02-13T01:53:35.798Z,82.43
2023-02-13T01:56:10.568Z,82.69
2023-02-13T01:58:42.786Z,83.86
2023-02-13T02:01:11.220Z,84.53
2023-02-13T02:03:49.270Z,84.11
2023-02-13T02:06:26.504Z,85.32
2023-02-13T02:08:58.815Z,85.81
2023-02-13T02:11:35.487Z,86.57
2023-02-13T02:14:05.410Z,86.40
2023-02-13T02:16:36.306Z,87.05
2023-02-13T02:19:09.428Z,88.44
2023-02-13T02:21:58.913Z,87.84
2023-02-13T02:24:31.909Z,89.10
2023-02-13T02:27:29.538Z,89.47
2023-02-13T02:30:39.440Z,89.77
2023-02-13T02:33:57.325Z,91.64
2023-02-13T02:36:45.883Z,91.81
2023-02-13T02:39:27.231Z,93.88
2023-02-13T02:42:39.838Z,94.52
2023-02-13T02:45:16.650Z,94.60
2023-02-13T02:48:12.831Z,95.51
2023-02-13T02:50:51.169Z,95.48
2023-02-13T02:53:51.644Z,95.64
2023-02-13T02:56:38.355Z,96.33
2023-02-13T02:59:30.723Z,96.91
2023-02-13T03:02:20.973Z,95.86
2023-02-13T03:05:15.099Z,96.35
2023-02-13T03:07:44.070Z,97.11
2023-02-13T03:10:50.029Z,96.94
2023-02-13T03:13:40.101Z,97.40
2023-02-13T03:16:34.346Z,97.95
2023-02-13T03:19:20.790Z,97.80
2023-02-13T03:22:18.888Z,98.17
2023-02-13T03:25:08.581Z,96.88
2023-02-13T03:28:11.741Z,97.82
2023-02-13T03:30:54.091Z,97.30
2023-02-13T03:33:50.491Z,97.86
2023-02-13T03:36:45.775Z,98.35
2023-02-13T03:39:20.474Z,99.32
2023-02-13T03:42:21.666Z,99.80
2023-02-13T03:45:50.028Z,99.80
2023-02-13T03:48:42.085Z,99.90
2023-02-13T03:51:12.684Z,100.00
2023-02-13T03:53:42.211Z,100.00
2023-02-13T03:56:31.550Z,100.00
2023-02-13T03:59:17.596Z,100.00
2023-02-13T04:01:46.888Z,100.00
2023-02-13T04:04:29.342Z,99.44
2023-02-13T04:07:06.140Z,99.96
2023-02-13T04:09:37.616Z,100.00
2023-02-13T04:12:20.898Z,100.00
2023-02-13T04:14:51.833Z,100.00
2023-02-13T04:17:30.938Z,100.00
2023-02-13T04:19:58.467Z,100.00
2023-02-13T04:22:26.050Z,100.00
2023-02-13T04:24:53.593Z,100.00
2023-02-13T04:27:21.209Z,100.00
2023-02-13T04:29:48.713Z,100.00
2023-02-13T04:32:17.625Z,100.00
2023-02-13T04:34:45.246Z,100.00
2023-02-13T04:37:13.100Z,100.00
2023-02-13T04:39:40.631Z,100.00
2023-02-13T04:42:08.243Z,100.00
2023-02-13T04:44:35.865Z,100.00
2023-02-13T04:47:03.594Z,100.00
2023-02-13T04:49:31.256Z,100.00
2023-02-13T04:51:58.847Z,100.00
2023-02-13T04:54:26.581Z,100.00
2023-02-13T04:56:54.103Z,100.00
2023-02-13T04:59:21.548Z,100.00
2023-02-13T05:01:49.233Z,100.00
2023-02-13T05:04:17.722Z,100.00
2023-02-13T05:06:45.534Z,100.00
2023-02-13T05:09:13.175Z,100.00
2023-02-13T05:11:40.873Z,100.00
2023-02-13T05:14:09.574Z,100.00
2023-02-13T05:16:37.433Z,100.00
2023-02-13T05:19:07.627Z,100.00
2023-02-13T05:22:05.219Z,100.00
2023-02-13T05:24:33.007Z,100.00
2023-02-13T05:27:00.831Z,100.00
2023-02-13T05:30:13.793Z,100.00
2023-02-13T05:32:43.358Z,100.00
2023-02-13T05:36:03.383Z,100.00
2023-02-13T05:38:35.225Z,100.00
2023-02-13T05:44:54.909Z,100.00
2023-02-13T05:47:22.477Z,100.00
2023-02-13T05:54:27.167Z,100.00
2023-02-13T05:56:54.900Z,100.00
2023-02-13T05:59:24.107Z,100.00
2023-02-13T06:01:54.843Z,100.00
2023-02-13T06:04:30.079Z,100.00
2023-02-13T06:07:00.177Z,100.00
2023-02-13T06:09:35.554Z,100.00
2023-02-13T06:12:04.513Z,100.00
2023-02-13T06:14:32.368Z,100.00
2023-02-13T06:17:29.213Z,100.00
2023-02-13T06:19:56.550Z,100.00
2023-02-13T06:22:24.168Z,100.00
2023-02-13T06:24:51.614Z,100.00
2023-02-13T06:27:18.994Z,100.00
2023-02-13T06:29:46.545Z,100.00
2023-02-13T06:32:13.994Z,100.00
2023-02-13T06:34:41.412Z,100.00
2023-02-13T06:37:08.976Z,100.00
2023-02-13T06:39:36.678Z,100.00
2023-02-13T06:42:04.346Z,100.00
2023-02-13T06:44:31.853Z,100.00
2023-02-13T06:46:59.515Z,100.00
2023-02-13T06:49:27.045Z,100.00
2023-02-13T06:51:54.549Z,100.00
2023-02-13T06:54:29.216Z,100.00
2023-02-13T06:57:04.661Z,100.00
2023-02-13T06:59:33.179Z,100.00
2023-02-13T07:02:00.537Z,100.00
2023-02-13T07:04:28.679Z,100.00
2023-02-13T07:06:57.110Z,100.00
2023-02-13T07:09:24.982Z,100.00
2023-02-13T07:11:52.632Z,100.00
2023-02-13T07:14:20.116Z,100.00
2023-02-13T07:16:47.624Z,100.00
2023-02-13T07:19:15.076Z,100.00
2023-02-13T07:21:42.460Z,100.00
2023-02-13T07:24:10.101Z,100.00
2023-02-13T07:26:37.529Z,100.00
2023-02-13T07:29:11.396Z,100.00
2023-02-13T07:31:39.991Z,100.00
2023-02-13T07:34:08.326Z,100.00
2023-02-13T07:36:35.937Z,100.00
2023-02-13T07:39:03.590Z,100.00
2023-02-13T07:41:31.041Z,100.00
2023-02-13T07:43:58.642Z,100.00
2023-02-13T07:46:26.128Z,100.00
2023-02-13T07:48:53.629Z,100.00
2023-02-13T07:51:25.061Z,100.00
2023-02-13T07:53:52.956Z,100.00
2023-02-13T07:56:20.571Z,100.00
2023-02-13T07:58:48.103Z,100.00
2023-02-13T08:01:17.361Z,100.00
2023-02-13T08:03:48.513Z,100.00
2023-02-13T08:06:16.348Z,100.00
2023-02-13T08:08:43.725Z,100.00
2023-02-13T08:11:49.698Z,100.00
2023-02-13T08:14:17.049Z,100.00
2023-02-13T08:16:44.471Z,91.94
2023-02-13T08:19:11.888Z,82.15
2023-02-13T08:21:40.641Z,73.74
2023-02-13T08:24:08.481Z,71.08
2023-02-13T08:26:36.037Z,66.19
2023-02-13T08:29:04.469Z,65.52
2023-02-13T08:31:32.352Z,63.10
2023-02-13T08:33:59.843Z,58.12
2023-02-13T08:36:27.245Z,57.24
2023-02-13T08:38:54.697Z,58.85
2023-02-13T08:41:23.106Z,57.97
2023-02-13T08:43:50.703Z,51.50
2023-02-13T08:46:18.274Z,54.19
2023-02-13T08:48:45.750Z,50.32
2023-02-13T08:51:14.127Z,52.46
2023-02-13T08:53:42.808Z,50.23
2023-02-13T08:56:11.119Z,47.88
2023-02-13T08:58:38.828Z,48.05
2023-02-13T09:01:07.576Z,49.00
2023-02-13T09:03:37.438Z,48.26
2023-02-13T09:06:05.227Z,46.86
2023-02-13T09:08:34.468Z,48.78
2023-02-13T09:11:04.093Z,48.30
2023-02-13T09:13:34.460Z,50.40
2023-02-13T09:16:06.524Z,44.65
2023-02-13T09:18:34.661Z,43.83
2023-02-13T09:21:07.674Z,42.92
2023-02-13T09:23:37.463Z,43.27
2023-02-13T09:26:07.334Z,47.57
2023-02-13T09:28:35.590Z,45.41
2023-02-13T09:31:11.733Z,48.06
2023-02-13T09:33:39.229Z,46.46
2023-02-13T09:36:08.654Z,44.27
2023-02-13T09:38:36.422Z,45.60
2023-02-13T09:41:12.439Z,45.81
2023-02-13T09:43:53.219Z,47.20
2023-02-13T09:46:29.497Z,45.81
2023-02-13T09:49:01.749Z,50.39
2023-02-13T09:51:29.358Z,47.34
2023-02-13T09:54:01.652Z,46.26
2023-02-13T09:56:42.068Z,47.84
2023-02-13T09:59:21.114Z,48.21
2023-02-13T10:01:51.415Z,46.89
2023-02-13T10:04:21.528Z,44.04
2023-02-13T10:07:16.788Z,45.67
2023-02-13T10:10:14.873Z,43.52
2023-02-13T10:13:05.781Z,45.76
2023-02-13T10:16:09.131Z,47.43
2023-02-13T10:18:50.455Z,44.17
2023-02-13T10:21:24.704Z,44.44
2023-02-13T10:24:00.132Z,47.33
2023-02-13T10:26:46.504Z,45.36
2023-02-13T10:30:03.187Z,43.66
2023-02-13T10:33:18.415Z,49.06
2023-02-13T10:35:53.213Z,50.72
2023-02-13T10:38:23.065Z,50.89
2023-02-13T10:40:59.530Z,51.79
2023-02-13T10:43:33.308Z,50.83
2023-02-13T10:46:15.642Z,51.81
2023-02-13T10:48:50.890Z,49.65
2023-02-13T10:51:22.168Z,49.98
2023-02-13T10:54:18.151Z,49.37
2023-02-13T10:57:09.085Z,49.12
2023-02-13T10:59:39.141Z,50.05
2023-02-13T11:02:28.944Z,51.29
2023-02-13T11:05:02.689Z,52.47
2023-02-13T11:07:31.391Z,52.90
2023-02-13T11:10:09.241Z,52.60
2023-02-13T11:12:36.604Z,52.94
2023-02-13T11:15:07.502Z,52.26
2023-02-13T11:17:39.894Z,53.72
2023-02-13T11:20:25.855Z,54.74
2023-02-13T11:22:53.679Z,54.91
2023-02-13T11:25:25.069Z,53.53
2023-02-13T11:28:24.674Z,54.16
2023-02-13T11:30:52.225Z,54.54
2023-02-13T11:33:27.516Z,57.11
2023-02-13T11:36:07.803Z,56.39
2023-02-13T11:38:35.553Z,58.29
2023-02-13T11:41:15.106Z,56.71
2023-02-13T11:43:53.645Z,57.49
2023-02-13T11:46:24.221Z,56.65
2023-02-13T11:49:06.725Z,57.25
2023-02-13T11:51:48.860Z,58.34
2023-02-13T11:54:28.117Z,58.67
2023-02-13T11:57:06.366Z,57.68
2023-02-13T11:59:40.885Z,58.96
2023-02-13T12:02:22.441Z,59.28
2023-02-13T12:04:53.191Z,58.51
2023-02-13T12:07:32.458Z,58.35
2023-02-13T12:10:06.334Z,58.99
2023-02-13T12:12:40.743Z,57.61
2023-02-13T12:15:31.865Z,58.58
2023-02-13T12:18:42.813Z,59.45
2023-02-13T12:21:28.403Z,58.43
2023-02-13T12:24:20.021Z,57.59
2023-02-13T12:26:53.996Z,58.10
2023-02-13T12:29:42.088Z,59.00
2023-02-13T12:32:15.202Z,58.12
2023-02-13T12:34:54.350Z,58.53
2023-02-13T12:37:52.122Z,59.04
2023-02-13T12:40:39.501Z,58.64
2023-02-13T12:43:12.512Z,58.39
2023-02-13T12:46:17.388Z,58.26
2023-02-13T12:48:52.075Z,58.54
2023-02-13T12:51:47.745Z,58.83
2023-02-13T12:55:04.473Z,58.26
2023-02-13T12:58:19.803Z,58.45
2023-02-13T13:00:53.096Z,58.11
2023-02-13T13:03:35.398Z,58.26
2023-02-13T13:06:11.986Z,60.14
2023-02-13T13:09:01.174Z,58.90
2023-02-13T13:11:34.778Z,60.28
2023-02-13T13:14:10.895Z,59.31
2023-02-13T13:16:51.342Z,59.30
2023-02-13T13:19:24.369Z,59.36
2023-02-13T13:22:13.151Z,59.43
2023-02-13T13:25:02.398Z,58.79
2023-02-13T13:27:35.879Z,59.01
2023-02-13T13:30:25.069Z,58.65
2023-02-13T13:33:02.904Z,59.55
2023-02-13T13:35:33.080Z,60.70
2023-02-13T13:38:14.591Z,59.26
2023-02-13T13:41:05.349Z,59.61
2023-02-13T13:43:50.962Z,59.06
2023-02-13T13:46:35.168Z,59.83
2023-02-13T13:49:57.803Z,59.97
2023-02-13T13:52:28.098Z,59.77
2023-02-13T13:54:57.554Z,60.26
2023-02-13T13:57:41.001Z,59.71
2023-02-13T14:00:08.836Z,60.79
2023-02-13T14:02:40.644Z,59.70
2023-02-13T14:05:13.763Z,59.10
2023-02-13T14:07:42.748Z,60.31
2023-02-13T14:10:22.294Z,60.02
2023-02-13T14:13:02.583Z,60.32
2023-02-13T14:15:38.995Z,60.23
2023-02-13T14:18:17.468Z,59.87
2023-02-13T14:21:31.261Z,60.45
2023-02-13T14:24:04.155Z,60.98
2023-02-13T14:26:38.451Z,60.50
2023-02-13T14:29:23.677Z,61.32
2023-02-13T14:32:08.468Z,61.16
2023-02-13T14:34:39.850Z,60.38
2023-02-13T14:37:10.852Z,59.91
2023-02-13T14:39:42.229Z,59.88
2023-02-13T14:42:43.779Z,60.90
2023-02-13T14:45:18.092Z,59.97
2023-02-13T14:47:53.542Z,60.02
2023-02-13T14:50:23.751Z,60.84
2023-02-13T14:52:52.564Z,60.78
2023-02-13T14:55:45.478Z,60.96
2023-02-13T14:58:23.936Z,60.96
2023-02-13T15:01:00.322Z,61.77
2023-02-13T15:03:38.553Z,61.79
2023-02-13T15:06:14.224Z,62.21
2023-02-13T15:08:49.404Z,61.40
2023-02-13T15:11:52.371Z,62.03
2023-02-13T15:14:32.818Z,61.57
2023-02-13T15:17:14.656Z,62.15
2023-02-13T15:19:51.628Z,62.22
2023-02-13T15:22:35.515Z,62.45
2023-02-13T15:25:04.181Z,62.46
2023-02-13T15:27:37.986Z,63.11
2023-02-13T15:30:20.415Z,63.09
2023-02-13T15:33:05.189Z,63.46
2023-02-13T15:35:37.230Z,63.14
2023-02-13T15:38:27.979Z,62.89
2023-02-13T15:41:07.116Z,63.79
2023-02-13T15:43:43.923Z,65.38
2023-02-13T15:46:28.107Z,65.04
2023-02-13T15:48:59.376Z,64.86
2023-02-13T15:51:29.919Z,65.13
2023-02-13T15:54:02.335Z,66.12
2023-02-13T15:56:31.541Z,65.59
2023-02-13T15:59:01.465Z,66.01
2023-02-13T16:01:31.158Z,65.99
2023-02-13T16:04:05.251Z,66.82
2023-02-13T16:06:34.032Z,68.15
2023-02-13T16:09:02.720Z,67.27
2023-02-13T16:11:39.258Z,67.93
2023-02-13T16:14:24.876Z,68.83
2023-02-13T16:17:02.451Z,69.13
2023-02-13T16:19:42.041Z,71.10
2023-02-13T16:22:40.773Z,71.13
2023-02-13T16:25:16.410Z,73.05
2023-02-13T16:27:54.257Z,73.31
2023-02-13T16:30:34.089Z,73.62
2023-02-13T16:33:18.963Z,73.78
2023-02-13T16:35:56.564Z,74.72
2023-02-13T16:38:31.928Z,75.92
2023-02-13T16:41:19.587Z,76.60
2023-02-13T16:43:52.209Z,77.59
2023-02-13T16:46:33.084Z,77.94
2023-02-13T16:49:06.812Z,80.23
2023-02-13T16:51:45.417Z,79.89
2023-02-13T16:54:45.170Z,80.77
2023-02-13T16:57:15.396Z,81.50
2023-02-13T16:59:51.741Z,81.75
2023-02-13T17:02:29.841Z,82.14
2023-02-13T17:05:09.506Z,82.95
2023-02-13T17:07:48.483Z,82.80
2023-02-13T17:10:29.022Z,83.06
2023-02-13T17:13:02.520Z,83.70
2023-02-13T17:15:31.769Z,85.26
2023-02-13T17:18:00.091Z,85.84
2023-02-13T17:20:32.823Z,88.74
2023-02-13T17:23:02.477Z,89.15
2023-02-13T17:25:31.072Z,89.21
2023-02-13T17:28:01.040Z,89.37
2023-02-13T17:30:31.721Z,90.35
2023-02-13T17:33:13.934Z,89.77
2023-02-13T17:35:45.565Z,90.97
2023-02-13T17:38:16.286Z,91.69
2023-02-13T17:40:45.080Z,91.12
2023-02-13T17:43:13.939Z,91.16
2023-02-13T17:45:44.436Z,92.86
2023-02-13T17:48:13.632Z,92.23
2023-02-13T17:50:44.275Z,92.20
2023-02-13T17:53:27.381Z,94.12
2023-02-13T17:55:54.873Z,93.39
2023-02-13T17:58:22.986Z,94.51
2023-02-13T18:00:50.737Z,94.09
2023-02-13T18:03:19.438Z,94.90
2023-02-13T18:05:48.844Z,94.51
2023-02-13T18:08:18.615Z,94.60
2023-02-13T18:10:46.198Z,94.47
2023-02-13T18:13:13.713Z,94.80
2023-02-13T18:15:44.151Z,95.66
2023-02-13T18:18:15.976Z,96.31
2023-02-13T18:20:44.276Z,96.40
2023-02-13T18:23:11.883Z,95.82
2023-02-13T18:25:39.324Z,96.23
2023-02-13T18:28:09.093Z,97.29
2023-02-13T18:30:36.608Z,98.62
2023-02-13T18:33:05.117Z,97.59
2023-02-13T18:35:33.514Z,98.25
2023-02-13T18:38:01.073Z,98.69
2023-02-13T18:40:28.579Z,99.19
2023-02-13T18:42:56.029Z,100.00
2023-02-13T18:45:23.504Z,100.00
2023-02-13T18:47:50.959Z,100.00
2023-02-13T18:50:18.541Z,100.00
2023-02-13T18:52:48.231Z,100.00
2023-02-13T18:55:16.678Z,100.00
2023-02-13T18:57:45.555Z,100.00
2023-02-13T19:00:14.400Z,100.00
2023-02-13T19:02:42.194Z,100.00
2023-02-13T19:05:10.310Z,100.00
2023-02-13T19:07:38.117Z,100.00
2023-02-13T19:10:07.140Z,100.00
2023-02-13T19:12:34.643Z,100.00
2023-02-13T19:15:02.541Z,100.00
2023-02-13T19:17:30.123Z,100.00
2023-02-13T19:19:57.750Z,100.00
2023-02-13T19:22:35.194Z,100.00
2023-02-13T19:25:02.945Z,100.00
2023-02-13T19:27:44.809Z,100.00
2023-02-13T19:30:14.944Z,100.00
2023-02-13T19:32:42.531Z,100.00
2023-02-13T19:35:10.072Z,100.00
2023-02-13T19:37:43.692Z,100.00
2023-02-13T19:40:13.626Z,100.00
2023-02-13T19:42:41.059Z,100.00
2023-02-13T19:45:11.796Z,100.00
2023-02-13T19:47:39.479Z,100.00
2023-02-13T19:50:07.622Z,100.00
2023-02-13T19:52:35.192Z,100.00
2023-02-13T19:55:02.835Z,100.00
2023-02-13T19:57:30.416Z,100.00
2023-02-13T20:00:01.804Z,100.00
2023-02-13T20:06:18.484Z,100.00
2023-02-13T20:09:57.845Z,100.00
2023-02-13T20:12:03.160Z,100.00
2023-02-13T20:15:22.145Z,100.00
2023-02-13T20:18:27.077Z,100.00
2023-02-13T20:20:59.963Z,100.00
2023-02-13T20:23:32.617Z,100.00
2023-02-13T20:26:28.397Z,100.00
2023-02-13T20:28:58.667Z,100.00
2023-02-13T20:31:27.379Z,100.00
2023-02-13T20:34:11.003Z,100.00
2023-02-13T20:36:38.562Z,100.00
2023-02-13T20:39:07.482Z,100.00
2023-02-13T20:41:37.790Z,100.00
2023-02-13T20:44:12.187Z,100.00
2023-02-13T20:46:40.534Z,100.00
2023-02-13T20:49:11.472Z,100.00
2023-02-13T20:51:39.384Z,100.00
2023-02-13T20:54:06.991Z,100.00
2023-02-13T20:56:35.300Z,100.00
2023-02-13T20:59:05.453Z,100.00
2023-02-13T21:01:37.322Z,100.00
2023-02-13T21:04:04.874Z,100.00
2023-02-13T21:06:35.288Z,100.00
2023-02-13T21:09:09.155Z,100.00
2023-02-13T21:11:38.797Z,100.00
2023-02-13T21:14:06.937Z,100.00
2023-02-13T21:16:37.097Z,100.00
2023-02-13T21:19:09.004Z,100.00
2023-02-13T21:21:38.453Z,100.00
2023-02-13T21:24:08.620Z,100.00
2023-02-13T21:26:36.758Z,100.00
2023-02-13T21:29:06.108Z,100.00
2023-02-13T21:31:37.166Z,100.00
2023-02-13T21:34:11.258Z,100.00
2023-02-13T21:36:40.248Z,100.00
2023-02-13T21:39:09.690Z,100.00
2023-02-13T21:41:40.473Z,100.00
2023-02-13T21:44:08.112Z,100.00
2023-02-13T21:46:35.614Z,100.00
2023-02-13T21:49:05.157Z,100.00
2023-02-13T21:51:35.943Z,100.00
2023-02-13T21:54:05.070Z,100.00
2023-02-13T21:56:36.779Z,100.00
2023-02-13T21:59:10.830Z,100.00
2023-02-13T22:01:46.897Z,100.00
2023-02-13T22:04:15.428Z,100.00
2023-02-13T22:06:43.138Z,100.00
2023-02-13T22:09:16.062Z,100.00
2023-02-13T22:11:44.262Z,100.00
2023-02-13T22:14:15.983Z,100.00
2023-02-13T22:16:44.018Z,100.00
2023-02-13T22:19:15.758Z,100.00
2023-02-13T22:21:44.167Z,100.00
2023-02-13T22:24:11.752Z,100.00
2023-02-13T22:26:41.760Z,100.00
2023-02-13T22:29:13.580Z,100.00
2023-02-13T22:31:41.656Z,100.00
2023-02-13T22:34:11.883Z,100.00
2023-02-13T22:36:39.640Z,100.00
2023-02-13T22:39:08.821Z,100.00
2023-02-13T22:41:36.364Z,100.00
2023-02-13T22:44:04.054Z,100.00
2023-02-13T22:46:33.154Z,100.00
2023-02-13T22:49:01.459Z,100.00
2023-02-13T22:51:33.928Z,100.00
2023-02-13T22:54:01.939Z,100.00
